Terreton, ID (83450)

6:24 PM MDT on September 19, 2017 (GMT -0600)
Fanning | | Change Station
Active Advisory: Wind Advisory

Elev 4741 ft 43.51 °N, 112.07 °W | Updated 31 minutes ago

Partly Cloudy
Partly Cloudy
51 °F
Feels Like 51 °F
N
23
Wind Variable Wind from SW
Gusts 32 mph

Today
High -- | Low -- °F
--% Chance of Precip.
Yesterday
High -- | Low -- °F
Precip. -- in
Pressure 29.83 in
Visibility 10.0 miles
Clouds Scattered Clouds 6000 ft
Mostly Cloudy 10000 ft
Dew Point 32 °F
Humidity 48%
Rainfall 0.05 in
Snow Depth Not available.
7:13 AM 7:32 PM
Waning Crescent, 0% visible
METAR KIDA 192353Z 22020G28KT 10SM SCT060 BKN100TCU 11/00 A2986 RMK AO2 PK WND 23032/2255 SLP101 SHRASN W-NW MOV LTL T01060000 10128 20100 53010
Pressure 29.83 in
Visibility 10.0 miles
Clouds Scattered Clouds 6000 ft
Mostly Cloudy 10000 ft
Dew Point 32 °F
Humidity 48%
Rainfall 0.05 in
Snow Depth Not available.
7:13 AM 7:32 PM
Waning Crescent, 0% visible
METAR KIDA 192353Z 22020G28KT 10SM SCT060 BKN100TCU 11/00 A2986 RMK AO2 PK WND 23032/2255 SLP101 SHRASN W-NW MOV LTL T01060000 10128 20100 53010

Get Your Daily Forecast Email!

Thanks for signing up!

Be on the lookout for a verification email in your inbox.

You'll start receiving severe weather alerts in your inbox..

×

10-Day Weather Forecast

Almanac

Astronomy

Sep. 19, 2017 Rise Set
Actual Time
Civil Twilight
Nautical Twilight
Astronomical Twilight
Moon
Length of Visible Light
Length of Day
Tomorrow will be .
, % of the Moon is Illuminated

Today's Extremes

State Highs State Lows

Community

WunderPhotos

Category 6

Welcome to Category 6. This is the collective home for Weather Underground's featured writeups by Dr. Jeff Masters (right), Bob Henson (left), Chris Burt, and other regular contributors.

Nearby

Air Quality

  Air Quality AQ Index Pollutant
Not available.

Snow Depth

Station Depth Elevation

Earthquake Activity

City Distance Mag. Time & Date
Minimum magnitude displayed is 2.5.

Coastal Water Temperatures

Place Temperature

Stations

Nearby Weather Stations

Station Location Temp. Windchill Dew Point Humidity Wind Precip. Elev Updated Type
                   

Watches & Warnings

Wind Advisory
Issued: 1:37 PM MDT Sep. 19, 2017 – National Weather Service

... Wind Advisory in effect until 8 PM MDT this evening...

The National Weather Service in Pocatello has issued a Wind
Advisory, which is in effect until 8 PM MDT this evening.

* Impacts/timing... strong southwest winds will make travel
difficult at times along US highways 20, 26, and 93 through
early evening.

* Winds... southwest winds 25 to 35 with gusts around 45 mph.

* Locations... Craters of the Moon, Arco, inl

Precautionary/preparedness actions...

A Wind Advisory means that winds of 30 mph are expected. Gusts
over 45 mph are possible. Winds this strong can make driving
difficult, especially for high profile vehicles. Use extra
caution.